Time;durP1;ratioP1;P1;durP2;ratioP2;P2;SDS_P1;SDS_P2;PMS_P1;PMS_P2;Temp;Humidity;BMP_temperature;BMP_pressure;BME280_temperature;BME280_humidity;BME280_pressure;Samples;Min_cycle;Max_cycle;Signal;HPM_P1;HPM_P2
2022/05/23 00:02:27;;;;;;;2.20;2.00;;;;;;;21.57;46.31;97954.16;6947946;28;20268;-80
2022/05/23 00:05:48;;;;;;;2.53;2.30;;;;;;;21.83;46.23;97982.88;6947027;28;20277;-80
2022/05/23 00:09:12;;;;;;;2.80;2.10;;;;;;;21.84;45.86;97975.47;6947920;28;20261;-80
2022/05/23 00:12:34;;;;;;;3.30;2.30;;;;;;;20.62;49.22;97972.81;6947631;28;20195;-80
2022/05/23 00:15:55;;;;;;;4.40;2.47;;;;;;;20.84;49.43;97971.22;6953071;28;20262;-80
2022/05/23 00:19:19;;;;;;;3.37;2.17;;;;;;;20.83;49.94;97988.78;6943567;28;20282;-80
2022/05/23 00:22:40;;;;;;;2.30;2.10;;;;;;;20.64;49.75;97944.03;6925974;28;20224;-79
2022/05/23 00:26:04;;;;;;;3.57;2.40;;;;;;;20.73;49.99;97974.34;6946795;28;20238;-80
2022/05/23 00:29:26;;;;;;;2.40;2.20;;;;;;;20.91;49.37;97948.97;6945844;28;20224;-80
2022/05/23 00:36:26;;;;;;;3.70;2.30;;;;;;;20.85;49.48;97953.66;6946871;28;20563;-80
2022/05/23 00:39:48;;;;;;;2.17;1.97;;;;;;;20.64;50.09;97959.66;6946256;28;20311;-80
2022/05/23 00:43:16;;;;;;;2.33;2.13;;;;;;;20.07;50.67;97861.13;6947031;28;20209;-80
2022/05/23 00:46:53;;;;;;;2.43;2.23;;;;;;;20.67;49.91;97918.81;6926340;28;20277;-80
2022/05/23 00:50:17;;;;;;;2.47;2.27;;;;;;;20.04;51.77;97909.00;6918983;28;20360;-79
2022/05/23 00:53:42;;;;;;;2.47;2.27;;;;;;;20.12;51.50;97902.94;6925289;28;20204;-80
2022/05/23 00:57:05;;;;;;;4.53;2.37;;;;;;;19.58;52.10;97885.84;6946979;28;20275;-80
2022/05/23 01:00:28;;;;;;;3.07;2.70;;;;;;;19.80;52.34;97910.03;6945839;28;20246;-80
2022/05/23 01:03:50;;;;;;;3.27;2.23;;;;;;;20.36;50.83;97902.97;6946552;28;20290;-80
2022/05/23 01:07:12;;;;;;;3.93;2.57;;;;;;;20.32;50.35;97902.75;6946529;28;20681;-80
2022/05/23 01:10:35;;;;;;;3.30;2.27;;;;;;;20.27;50.73;97904.72;6945928;28;20233;-80
2022/05/23 01:13:56;;;;;;;4.20;2.50;;;;;;;20.07;51.38;97903.00;6946582;28;20235;-80
2022/05/23 01:17:21;;;;;;;4.50;2.50;;;;;;;19.59;52.01;97901.16;6956895;28;20227;-80
2022/05/23 01:20:44;;;;;;;3.87;2.53;;;;;;;19.92;52.12;97888.59;6968606;28;20227;-79
2022/05/23 01:24:12;;;;;;;2.43;2.23;;;;;;;19.76;51.58;97876.16;6951711;28;20676;-80
2022/05/23 01:27:37;;;;;;;3.17;2.60;;;;;;;19.84;52.30;97883.72;6951482;28;20297;-80
2022/05/23 01:30:59;;;;;;;3.33;2.70;;;;;;;19.50;52.62;97874.69;6951573;28;20211;-80
2022/05/23 01:34:21;;;;;;;2.70;2.33;;;;;;;19.73;52.25;97873.97;6932659;28;20294;-80
2022/05/23 01:37:42;;;;;;;6.93;2.50;;;;;;;19.53;52.76;97863.19;6945156;28;20413;-80
2022/05/23 01:41:04;;;;;;;4.00;2.60;;;;;;;19.62;52.26;97861.47;6950893;28;20652;-80
2022/05/23 01:44:28;;;;;;;2.73;2.40;;;;;;;19.59;52.47;97848.38;6946513;28;20211;-80
2022/05/23 01:47:50;;;;;;;2.67;2.47;;;;;;;19.85;51.51;97860.72;6923590;28;20288;-80
2022/05/23 01:51:11;;;;;;;2.97;2.60;;;;;;;19.67;52.00;97850.50;6923839;28;20208;-79
2022/05/23 01:54:33;;;;;;;3.63;2.40;;;;;;;19.34;52.88;97856.78;6923821;28;20215;-80
2022/05/23 01:57:54;;;;;;;2.70;2.50;;;;;;;19.49;52.79;97867.59;6940910;28;20239;-80
2022/05/23 02:01:16;;;;;;;2.90;2.60;;;;;;;18.91;53.74;97860.25;6950774;28;20207;-80
2022/05/23 02:04:38;;;;;;;3.33;3.03;;;;;;;18.70;54.24;97848.63;6951019;28;20235;-80
2022/05/23 02:08:00;;;;;;;4.47;2.60;;;;;;;18.84;54.05;97876.16;6946504;28;20233;-80
2022/05/23 02:11:21;;;;;;;2.83;2.40;;;;;;;18.89;54.04;97857.84;6923119;28;20207;-80
2022/05/23 02:14:43;;;;;;;3.70;2.50;;;;;;;18.97;53.53;97859.97;6932494;28;20209;-80
2022/05/23 02:18:06;;;;;;;3.70;2.53;;;;;;;18.63;54.05;97822.72;6949630;28;20243;-80
2022/05/23 02:21:28;;;;;;;4.77;2.40;;;;;;;18.93;54.31;97850.69;6950520;28;20304;-79
2022/05/23 02:24:49;;;;;;;4.10;2.77;;;;;;;19.01;53.15;97832.91;6950430;28;20210;-80
2022/05/23 02:28:11;;;;;;;3.17;2.50;;;;;;;18.84;54.05;97837.91;6949175;28;20384;-80
2022/05/23 02:31:33;;;;;;;2.80;2.60;;;;;;;18.49;54.87;97838.06;6950070;28;20615;-80
2022/05/23 02:34:56;;;;;;;4.20;2.80;;;;;;;17.46;58.14;97815.03;6950026;28;20199;-79
2022/05/23 02:38:18;;;;;;;2.30;2.20;;;;;;;18.32;56.06;97823.94;6949101;28;20585;-80
2022/05/23 02:41:40;;;;;;;2.90;2.60;;;;;;;18.87;54.56;97824.50;6950051;28;20214;-79
2022/05/23 02:45:02;;;;;;;3.10;2.57;;;;;;;18.95;53.50;97820.38;6949356;28;20672;-80
2022/05/23 02:48:24;;;;;;;2.63;2.43;;;;;;;19.22;53.16;97807.91;6945350;28;20266;-80
2022/05/23 02:51:47;;;;;;;2.70;2.50;;;;;;;19.26;52.93;97802.69;6922039;28;20270;-80
2022/05/23 02:55:09;;;;;;;3.73;2.80;;;;;;;18.96;53.03;97797.41;6927215;28;20300;-80
2022/05/23 02:58:31;;;;;;;4.77;2.57;;;;;;;18.50;54.23;97775.00;6948568;28;20233;-80
2022/05/23 03:05:33;;;;;;;2.80;2.60;;;;;;;18.78;53.84;97760.66;6948119;28;20219;-80
2022/05/23 03:08:55;;;;;;;2.87;2.50;;;;;;;18.18;55.60;97766.41;6928441;28;20227;-80
2022/05/23 03:12:17;;;;;;;3.80;2.93;;;;;;;18.14;55.48;97767.19;6935814;28;20242;-80
2022/05/23 03:15:39;;;;;;;2.90;2.67;;;;;;;18.44;54.72;97770.66;6930118;28;20243;-80
2022/05/23 03:19:00;;;;;;;2.80;2.60;;;;;;;18.44;54.19;97762.47;6945665;28;20304;-80
2022/05/23 03:29:41;;;;;;;4.03;2.50;;;;;;;19.01;53.33;97749.03;6950509;28;20219;-79
2022/05/23 03:33:03;;;;;;;4.27;2.80;;;;;;;18.72;53.89;97745.41;6951327;28;20199;-80
2022/05/23 03:36:25;;;;;;;3.87;2.53;;;;;;;18.70;54.65;97752.25;6951039;28;20680;-80
2022/05/23 03:39:47;;;;;;;2.80;2.60;;;;;;;18.61;54.56;97748.47;6949520;28;20227;-79
2022/05/23 03:43:11;;;;;;;6.33;2.70;;;;;;;18.46;54.74;97757.53;6950865;28;20217;-79
2022/05/23 03:46:32;;;;;;;3.67;2.60;;;;;;;18.50;55.12;97766.00;6959655;28;20230;-80
2022/05/23 03:49:54;;;;;;;4.20;3.00;;;;;;;18.71;53.90;97732.03;6960071;28;20699;-79
2022/05/23 03:53:15;;;;;;;2.80;2.60;;;;;;;18.96;52.75;97719.03;6952414;28;20207;-80
2022/05/23 03:56:37;;;;;;;3.83;2.30;;;;;;;19.37;51.82;97733.19;6947261;28;20203;-80
2022/05/23 04:00:00;;;;;;;2.83;2.63;;;;;;;19.12;52.27;97734.22;6962738;28;20231;-80
2022/05/23 04:03:21;;;;;;;2.83;2.57;;;;;;;19.28;51.66;97718.53;6960660;28;20214;-80
2022/05/23 04:06:43;;;;;;;2.70;2.50;;;;;;;19.45;51.49;97749.00;6952408;28;20231;-80
2022/05/23 04:10:05;;;;;;;2.43;2.23;;;;;;;19.24;52.78;97780.31;6959289;28;20706;-79
2022/05/23 04:13:27;;;;;;;3.23;2.60;;;;;;;18.98;53.23;97822.56;6952172;28;20219;-78
2022/05/23 04:16:51;;;;;;;3.77;2.60;;;;;;;18.35;55.10;97826.13;6928597;28;20219;-79
2022/05/23 04:20:13;;;;;;;3.10;2.80;;;;;;;18.81;53.97;97820.16;6921882;28;20262;-79
2022/05/23 04:23:35;;;;;;;2.70;2.50;;;;;;;19.38;52.67;97871.50;6936620;28;20606;-81
2022/05/23 04:26:57;;;;;;;2.67;2.47;;;;;;;19.82;52.65;98019.97;6928946;28;20598;-78
2022/05/23 04:30:19;;;;;;;3.97;3.20;;;;;;;19.47;55.33;98022.91;6922874;28;20227;-79
2022/05/23 04:37:21;;;;;;;3.57;3.17;;;;;;;19.89;54.97;98020.47;6949829;28;20235;-79
2022/05/23 04:40:42;;;;;;;4.60;3.63;;;;;;;20.32;54.05;98031.41;6948964;28;20227;-80
2022/05/23 04:44:04;;;;;;;4.67;3.40;;;;;;;20.56;54.21;98048.75;6947437;28;20675;-80
2022/05/23 04:51:06;;;;;;;4.50;3.27;;;;;;;20.60;54.27;98057.19;6938060;28;20195;-79
2022/05/23 04:54:28;;;;;;;4.63;3.30;;;;;;;20.43;55.10;98085.00;6952956;28;20573;-80
2022/05/23 04:57:49;;;;;;;8.33;3.27;;;;;;;20.12;54.79;98045.28;6954397;28;20223;-79
2022/05/23 05:01:11;;;;;;;4.33;3.40;;;;;;;20.21;55.26;97999.75;6955200;28;20215;-79
2022/05/23 05:04:33;;;;;;;5.20;3.70;;;;;;;20.76;54.41;98045.00;6958033;28;20191;-79
2022/05/23 05:07:57;;;;;;;10.97;3.70;;;;;;;20.77;54.72;98027.47;6950029;28;20302;-79
2022/05/23 05:11:19;;;;;;;7.17;4.13;;;;;;;20.64;56.17;98009.75;6954709;28;20219;-82
2022/05/23 05:14:41;;;;;;;6.00;4.23;;;;;;;19.36;60.26;97983.88;6952896;28;20214;-80
2022/05/23 05:18:03;;;;;;;5.73;4.30;;;;;;;19.95;58.03;97943.56;6952236;28;20369;-79
2022/05/23 05:21:25;;;;;;;5.53;4.10;;;;;;;20.52;57.80;97949.09;6968490;28;20189;-79
2022/05/23 05:24:48;;;;;;;5.03;4.07;;;;;;;20.63;57.24;97903.25;6955194;28;20199;-79
2022/05/23 05:28:10;;;;;;;5.03;4.20;;;;;;;20.72;57.41;97957.09;6952454;28;20342;-79
2022/05/23 05:31:35;;;;;;;6.70;4.40;;;;;;;20.51;57.25;97932.97;6952608;28;20206;-79
2022/05/23 05:34:59;;;;;;;6.03;4.47;;;;;;;20.69;58.03;97954.13;6953165;28;20195;-79
2022/05/23 05:38:25;;;;;;;5.87;4.67;;;;;;;20.69;58.73;97948.66;6952453;28;20283;-80
2022/05/23 05:41:52;;;;;;;5.70;4.40;;;;;;;20.81;58.41;97919.72;6953313;28;20688;-79
2022/05/23 05:45:16;;;;;;;5.70;4.40;;;;;;;20.95;57.87;97870.56;6952606;28;20200;-79
2022/05/23 05:48:40;;;;;;;4.33;3.93;;;;;;;20.83;56.97;97824.38;6952036;28;20255;-79
2022/05/23 05:52:05;;;;;;;5.00;3.70;;;;;;;21.00;57.51;97848.56;6953459;28;20203;-79
2022/05/23 05:55:27;;;;;;;8.63;4.77;;;;;;;20.61;59.57;97854.22;6954216;28;20205;-80
2022/05/23 05:58:50;;;;;;;5.57;5.00;;;;;;;20.57;59.76;97844.16;6952690;28;20236;-79
2022/05/23 06:02:12;;;;;;;5.30;4.77;;;;;;;20.15;61.08;97860.47;6953669;28;20212;-80
2022/05/23 06:11:23;;;;;;;5.27;4.10;;;;;;;20.45;59.46;97851.97;6951263;28;20218;-82
2022/05/23 06:12:54;;;;;;;5.47;3.87;;;;;;;21.06;57.21;97787.09;6939934;28;20226;-81
2022/05/23 06:16:18;;;;;;;4.07;3.70;;;;;;;21.08;56.71;97778.25;6951664;28;20774;-81
2022/05/23 06:19:43;;;;;;;4.70;3.37;;;;;;;21.13;57.09;97741.75;6950729;28;20237;-81
2022/05/23 06:23:05;;;;;;;3.83;3.20;;;;;;;21.31;57.51;97782.03;6932852;28;20299;-81
2022/05/23 06:26:28;;;;;;;3.70;3.33;;;;;;;21.44;57.64;97745.63;6954016;28;20270;-82
2022/05/23 06:29:50;;;;;;;5.83;3.50;;;;;;;21.60;57.31;97738.75;6952451;28;20312;-80
2022/05/23 06:33:13;;;;;;;4.60;3.50;;;;;;;22.09;56.52;97747.19;6954430;28;20206;-81
2022/05/23 06:36:36;;;;;;;4.33;3.23;;;;;;;22.14;55.89;97734.16;6952770;28;20211;-80
2022/05/23 06:39:58;;;;;;;5.17;3.67;;;;;;;22.15;56.54;97743.22;6953572;28;20225;-81
2022/05/23 06:43:20;;;;;;;4.13;2.77;;;;;;;22.56;54.56;97728.41;6954887;28;20206;-83
2022/05/23 06:46:42;;;;;;;3.87;3.37;;;;;;;23.04;53.82;97732.25;6953601;28;20799;-81
2022/05/23 06:50:06;;;;;;;3.50;3.17;;;;;;;22.97;52.81;97709.88;6960043;28;20695;-82
2022/05/23 06:53:29;;;;;;;4.70;3.07;;;;;;;22.52;52.94;97691.66;6961834;28;20276;-82
2022/05/23 06:56:51;;;;;;;4.87;2.70;;;;;;;22.71;52.11;97697.81;6950880;28;20214;-82
2022/05/23 07:00:14;;;;;;;6.30;3.00;;;;;;;22.02;53.55;97643.28;6950481;28;20593;-81
2022/05/23 07:03:35;;;;;;;6.00;3.83;;;;;;;22.11;53.09;97670.81;6954883;28;20247;-82
2022/05/23 07:14:16;;;;;;;4.60;3.23;;;;;;;22.55;52.87;97635.28;6961691;28;20213;-82
2022/05/23 07:17:38;;;;;;;4.37;3.10;;;;;;;22.31;53.33;97641.00;6962059;28;20215;-82
2022/05/23 07:21:00;;;;;;;3.40;2.97;;;;;;;22.78;52.31;97626.75;6964944;28;20208;-79
2022/05/23 07:24:23;;;;;;;3.30;3.00;;;;;;;23.55;49.89;97641.84;6946680;28;20684;-81
2022/05/23 07:27:44;;;;;;;4.70;2.73;;;;;;;24.07;48.32;97662.97;6952305;28;20227;-82
2022/05/23 07:31:06;;;;;;;3.77;3.00;;;;;;;24.12;47.88;97673.84;6961831;28;20207;-80
2022/05/23 07:34:28;;;;;;;2.83;2.57;;;;;;;23.81;48.37;97672.22;6962778;28;20210;-81
2022/05/23 07:37:50;;;;;;;4.23;2.80;;;;;;;24.03;48.97;97684.03;6963381;28;20224;-82
2022/05/23 07:41:13;;;;;;;4.07;2.43;;;;;;;24.56;47.08;97683.84;6947628;28;20254;-81
2022/05/23 07:44:35;;;;;;;4.07;2.90;;;;;;;24.44;46.86;97658.84;6951784;28;20203;-81
2022/05/23 07:47:57;;;;;;;4.47;2.73;;;;;;;24.84;46.62;97663.94;6945552;28;20231;-80
2022/05/23 07:51:21;;;;;;;4.83;2.70;;;;;;;25.22;46.39;97672.38;6942809;28;20205;-82
2022/05/23 08:02:03;;;;;;;3.40;2.50;;;;;;;26.20;43.27;97665.63;6948650;28;20197;-83
2022/05/23 08:05:25;;;;;;;2.23;2.10;;;;;;;25.99;43.79;97668.34;6950055;28;20204;-81
2022/05/23 08:08:46;;;;;;;3.03;2.60;;;;;;;25.52;44.67;97668.63;6949807;28;20241;-81
2022/05/23 08:12:11;;;;;;;4.73;2.80;;;;;;;25.27;45.95;97645.47;6950158;28;20199;-80
2022/05/23 08:15:34;;;;;;;3.67;2.47;;;;;;;25.89;44.08;97657.59;6949284;28;20195;-81
2022/05/23 08:18:55;;;;;;;3.60;2.87;;;;;;;25.81;44.82;97657.63;6930606;28;20243;-81
2022/05/23 08:22:18;;;;;;;2.60;2.40;;;;;;;25.91;45.01;97669.19;6948121;28;20207;-81
2022/05/23 08:25:40;;;;;;;2.83;2.57;;;;;;;25.95;44.58;97648.03;6933826;28;20798;-81
2022/05/23 08:29:02;;;;;;;4.23;2.53;;;;;;;26.19;44.27;97637.19;6942814;28;20226;-81
2022/05/23 08:32:25;;;;;;;3.20;2.70;;;;;;;25.95;44.92;97675.66;6928452;28;20210;-81
2022/05/23 08:35:48;;;;;;;5.50;2.90;;;;;;;25.41;46.10;97632.28;6952918;28;20204;-81
2022/05/23 08:39:10;;;;;;;3.57;2.60;;;;;;;25.73;45.85;97606.81;6953517;28;20232;-81
2022/05/23 08:42:36;;;;;;;3.63;2.73;;;;;;;26.14;45.80;97653.16;6957129;28;20199;-82
2022/05/23 08:45:59;;;;;;;4.13;2.97;;;;;;;25.89;47.02;97635.50;6955400;28;20198;-82
2022/05/23 08:49:32;;;;;;;4.63;2.90;;;;;;;26.11;46.07;97640.00;6966687;28;20250;-82
2022/05/23 08:52:55;;;;;;;4.63;3.10;;;;;;;26.03;47.02;97633.38;6965839;28;20210;-81
2022/05/23 08:56:22;;;;;;;4.73;2.93;;;;;;;26.21;46.77;97637.69;6939921;28;20203;-84
2022/05/23 08:59:48;;;;;;;5.20;2.80;;;;;;;26.19;47.04;97614.28;6931784;28;20257;-82
2022/05/23 09:03:26;;;;;;;2.57;2.37;;;;;;;26.27;45.83;97602.34;6941583;28;20195;-82
2022/05/23 09:06:50;;;;;;;3.23;2.80;;;;;;;26.14;46.54;97604.22;6841978;28;20243;-82
2022/05/23 09:10:17;;;;;;;4.57;2.80;;;;;;;26.24;47.00;97606.59;6863732;28;20229;-82
2022/05/23 09:13:41;;;;;;;3.83;3.07;;;;;;;26.32;46.22;97599.41;6857900;28;20205;-81
2022/05/23 09:17:03;;;;;;;3.73;2.70;;;;;;;26.50;46.69;97585.13;6847968;28;20209;-81
2022/05/23 09:20:33;;;;;;;4.37;2.80;;;;;;;25.58;46.86;97581.72;6873953;28;20221;-81
2022/05/23 09:23:56;;;;;;;4.43;2.83;;;;;;;26.37;46.18;97574.34;6860752;28;20296;-81
2022/05/23 09:27:21;;;;;;;3.30;3.00;;;;;;;26.39;46.45;97578.38;6863358;28;20363;-80
2022/05/23 09:30:45;;;;;;;3.47;3.00;;;;;;;26.66;45.79;97575.09;6849122;28;20241;-80
2022/05/23 09:34:09;;;;;;;4.77;3.20;;;;;;;26.77;46.23;97590.13;6856220;28;20205;-80
2022/05/23 09:37:37;;;;;;;3.50;2.83;;;;;;;26.78;47.24;97611.09;6852788;28;20728;-79
2022/05/23 09:41:00;;;;;;;4.90;3.20;;;;;;;27.07;46.03;97599.16;6865645;28;20233;-79
2022/05/23 09:48:13;;;;;;;5.43;2.90;;;;;;;27.45;44.40;97556.25;6931693;28;20254;-79
2022/05/23 09:51:49;;;;;;;3.90;2.93;;;;;;;27.64;44.47;97580.59;6953273;28;20302;-80
2022/05/23 09:55:14;;;;;;;9.00;3.20;;;;;;;27.79;44.15;97578.00;6947626;28;20216;-80
2022/05/23 09:58:38;;;;;;;4.67;2.67;;;;;;;27.76;44.24;97580.63;6951059;28;20226;-80
2022/05/23 10:02:04;;;;;;;4.37;3.30;;;;;;;28.04;43.48;97596.25;6952958;28;20599;-82
2022/05/23 10:05:28;;;;;;;3.93;2.73;;;;;;;28.13;42.27;97591.38;6952902;28;20207;-81
2022/05/23 10:08:50;;;;;;;4.00;2.93;;;;;;;28.29;42.29;97606.16;6943176;28;20232;-82
2022/05/23 10:12:12;;;;;;;2.90;2.70;;;;;;;28.70;43.37;97600.34;6925823;28;20726;-83
2022/05/23 10:15:35;;;;;;;3.97;3.00;;;;;;;28.95;41.41;97595.53;6939027;28;20238;-80
2022/05/23 10:19:00;;;;;;;5.17;3.00;;;;;;;28.75;40.99;97613.16;6950770;28;20297;-81
2022/05/23 10:22:24;;;;;;;3.57;3.10;;;;;;;28.94;41.65;97613.31;6951556;28;20304;-84
2022/05/23 10:25:55;;;;;;;3.57;2.70;;;;;;;29.08;40.98;97597.13;6950609;28;20208;-82
2022/05/23 10:29:22;;;;;;;7.40;3.10;;;;;;;28.71;42.82;97612.25;6949250;28;20269;-82
2022/05/23 10:32:48;;;;;;;4.30;3.27;;;;;;;28.27;43.04;97622.34;6950266;28;20223;-81
2022/05/23 10:36:12;;;;;;;5.53;3.37;;;;;;;28.57;43.74;97629.28;6948886;28;20199;-81
2022/05/23 10:43:17;;;;;;;7.53;4.77;;;;;;;28.32;43.28;97647.03;6936851;28;20205;-81
2022/05/23 10:46:40;;;;;;;4.77;3.50;;;;;;;27.93;44.10;97641.38;6949462;28;20214;-81
2022/05/23 10:50:10;;;;;;;5.80;3.83;;;;;;;28.26;43.68;97664.28;6949094;28;20232;-82
2022/05/23 10:53:38;;;;;;;5.00;3.57;;;;;;;28.03;43.61;97627.91;6949946;28;20218;-81
2022/05/23 10:57:09;;;;;;;5.00;3.30;;;;;;;28.38;43.84;97683.72;6949493;28;20206;-81
2022/05/23 11:00:39;;;;;;;5.67;3.57;;;;;;;27.93;44.14;97672.69;6949578;28;20773;-81
2022/05/23 11:04:08;;;;;;;5.33;3.57;;;;;;;28.32;43.59;97674.78;6950120;28;20201;-82
2022/05/23 11:07:47;;;;;;;5.70;4.17;;;;;;;27.69;45.48;97669.03;6950670;28;20258;-79
2022/05/23 11:11:12;;;;;;;6.13;3.30;;;;;;;28.20;44.47;97696.94;6947698;28;20199;-84
2022/05/23 11:14:40;;;;;;;5.87;3.80;;;;;;;28.23;44.56;97695.44;6950546;28;20729;-81
2022/05/23 11:18:07;;;;;;;9.47;4.53;;;;;;;27.80;47.68;97709.03;6946702;28;20223;-80
2022/05/23 11:21:36;;;;;;;6.67;4.07;;;;;;;27.94;48.40;97717.81;6965797;28;20203;-80
2022/05/23 11:25:09;;;;;;;8.27;4.57;;;;;;;27.51;50.09;97734.03;6950216;28;20202;-78
2022/05/23 11:35:53;;;;;;;7.20;4.30;;;;;;;26.03;52.26;97793.63;6948407;28;20196;-79
2022/05/23 11:39:49;;;;;;;7.37;4.60;;;;;;;25.85;53.93;97775.44;6937154;28;20219;-78
2022/05/23 11:43:17;;;;;;;6.23;4.57;;;;;;;25.28;55.85;97773.19;6942610;28;20220;-79
2022/05/23 11:47:08;;;;;;;5.37;3.80;;;;;;;24.43;58.44;97803.28;6948623;28;20216;-79
2022/05/23 11:50:31;;;;;;;7.47;4.47;;;;;;;24.56;59.14;97797.66;6937790;28;20321;-79
2022/05/23 11:53:57;;;;;;;4.83;4.03;;;;;;;24.25;58.76;97774.84;6948878;28;20573;-79
2022/05/23 11:57:33;;;;;;;7.87;4.13;;;;;;;24.47;59.37;97784.97;6922025;28;20214;-79
2022/05/23 12:01:05;;;;;;;7.87;4.10;;;;;;;24.74;57.40;97779.25;6928690;28;20230;-79
2022/05/23 12:04:27;;;;;;;5.40;3.50;;;;;;;24.55;56.67;97803.50;6944368;28;20217;-79
2022/05/23 12:08:04;;;;;;;4.73;3.43;;;;;;;23.74;57.88;97809.50;6920532;28;20242;-78
2022/05/23 12:11:27;;;;;;;7.30;3.73;;;;;;;24.46;56.61;97740.09;6932298;28;20298;-78
2022/05/23 12:14:54;;;;;;;6.40;3.60;;;;;;;24.75;56.05;97731.25;6947682;28;20227;-78
2022/05/23 12:18:38;;;;;;;6.17;2.97;;;;;;;24.28;56.25;97676.97;6947006;28;20229;-79
2022/05/23 12:22:24;;;;;;;5.23;2.77;;;;;;;23.70;57.58;97621.34;6947522;28;20220;-78
2022/05/23 12:26:06;;;;;;;5.33;3.03;;;;;;;23.37;59.17;97532.84;6947289;28;20599;-79
2022/05/23 12:29:31;;;;;;;7.40;3.30;;;;;;;22.17;62.26;97438.97;6946885;28;20231;-78
2022/05/23 12:32:56;;;;;;;8.83;4.07;;;;;;;21.01;67.61;97324.00;6949678;28;20230;-79
2022/05/23 12:36:24;;;;;;;4.70;3.90;;;;;;;20.61;69.65;97276.34;6952087;28;20785;-78
2022/05/23 12:40:03;;;;;;;7.13;3.70;;;;;;;20.81;68.00;97278.66;6948178;28;20235;-78
2022/05/23 12:43:35;;;;;;;6.40;3.20;;;;;;;21.19;65.61;97269.06;6949926;28;20207;-79
2022/05/23 12:47:02;;;;;;;6.73;2.93;;;;;;;22.44;62.38;97254.84;6948949;28;20217;-79
2022/05/23 12:50:29;;;;;;;6.43;3.20;;;;;;;23.32;61.45;97304.72;6947844;28;20220;-79
2022/05/23 12:54:16;;;;;;;6.53;3.07;;;;;;;24.04;57.74;97337.88;6947693;28;20200;-79
2022/05/23 12:58:10;;;;;;;5.03;2.80;;;;;;;24.15;57.53;97361.19;6940714;28;20211;-79
2022/05/23 13:01:36;;;;;;;8.50;3.20;;;;;;;24.21;57.79;97362.63;6947797;28;20243;-79
2022/05/23 13:05:04;;;;;;;6.00;3.03;;;;;;;23.95;59.24;97383.88;6948925;28;20235;-79
2022/05/23 13:08:28;;;;;;;7.43;2.90;;;;;;;24.94;57.29;97392.56;6947300;28;20319;-79
2022/05/23 13:11:54;;;;;;;6.33;3.03;;;;;;;25.32;54.41;97383.13;6950670;28;20207;-79
2022/05/23 13:15:23;;;;;;;4.07;2.90;;;;;;;24.64;57.22;97375.19;6949794;28;20221;-79
2022/05/23 13:22:25;;;;;;;5.27;2.97;;;;;;;25.46;53.98;97397.50;6961138;28;20857;-79
2022/05/23 13:25:47;;;;;;;6.57;3.13;;;;;;;26.30;52.82;97416.53;6943675;28;20569;-80
2022/05/23 13:29:13;;;;;;;7.47;3.10;;;;;;;26.29;51.67;97445.28;6953256;28;20623;-80
2022/05/23 13:32:35;;;;;;;4.10;3.00;;;;;;;26.68;51.23;97455.84;6954668;28;20211;-81
2022/05/23 13:36:00;;;;;;;4.90;2.80;;;;;;;26.79;49.78;97438.47;6960993;28;20223;-80
2022/05/23 13:39:21;;;;;;;6.70;3.07;;;;;;;27.31;49.19;97431.19;6957420;28;20233;-82
2022/05/23 13:42:43;;;;;;;7.03;2.80;;;;;;;27.74;47.59;97428.63;6955105;28;20207;-79
2022/05/23 13:46:12;;;;;;;5.33;3.17;;;;;;;27.32;48.57;97420.94;6958971;28;20216;-80
2022/05/23 13:49:36;;;;;;;4.40;2.57;;;;;;;27.07;49.73;97436.69;6963005;28;20242;-81
2022/05/23 13:53:01;;;;;;;3.53;2.67;;;;;;;27.21;49.67;97439.16;6960346;28;20200;-81
2022/05/23 13:56:23;;;;;;;6.10;2.70;;;;;;;27.46;47.79;97430.50;6952613;28;20202;-81
2022/05/23 13:59:49;;;;;;;4.50;2.63;;;;;;;27.37;47.99;97424.28;6951310;28;20258;-85
2022/05/23 14:03:20;;;;;;;6.47;2.60;;;;;;;27.22;47.71;97407.56;6951752;28;20214;-81
2022/05/23 14:06:45;;;;;;;7.93;2.80;;;;;;;27.79;46.82;97380.53;6941707;28;20243;-84
2022/05/23 14:10:10;;;;;;;4.93;2.43;;;;;;;27.01;48.14;97412.38;6951375;28;20254;-81
2022/05/23 14:13:32;;;;;;;3.23;2.40;;;;;;;27.68;47.85;97407.06;6945929;28;20200;-79
2022/05/23 14:16:57;;;;;;;5.03;2.50;;;;;;;26.96;46.31;97369.13;6948226;28;20218;-80
2022/05/23 14:20:25;;;;;;;4.83;2.60;;;;;;;27.93;44.71;97403.91;6950364;28;20215;-79
2022/05/23 14:23:53;;;;;;;5.73;2.67;;;;;;;27.22;45.50;97380.69;6950599;28;20218;-80
2022/05/23 14:27:20;;;;;;;4.93;2.50;;;;;;;27.93;43.71;97369.84;6951812;28;20197;-80
2022/05/23 14:30:43;;;;;;;3.60;2.40;;;;;;;28.46;43.84;97395.19;6950453;28;20231;-81
2022/05/23 14:34:08;;;;;;;6.43;2.83;;;;;;;28.28;43.76;97366.13;6937924;28;20653;-80
2022/05/23 14:37:34;;;;;;;5.07;2.37;;;;;;;28.16;45.06;97371.75;6937457;28;20237;-81
2022/05/23 14:40:57;;;;;;;4.17;2.37;;;;;;;28.18;45.14;97399.13;6939446;28;20247;-80
2022/05/23 14:44:32;;;;;;;4.17;2.73;;;;;;;28.26;45.25;97407.25;6941254;28;20205;-82
2022/05/23 14:48:00;;;;;;;6.17;2.93;;;;;;;28.40;44.86;97382.75;6946609;28;20674;-81
2022/05/23 14:51:27;;;;;;;3.40;2.10;;;;;;;28.36;45.03;97358.84;6951793;28;20206;-82
2022/05/23 15:02:17;;;;;;;4.63;2.30;;;;;;;28.16;44.30;97398.63;6951591;28;20210;-83
2022/05/23 15:05:39;;;;;;;4.27;2.50;;;;;;;28.36;44.00;97392.88;6950704;28;20203;-81
2022/05/23 15:09:00;;;;;;;5.83;2.60;;;;;;;28.01;45.16;97393.84;6942387;28;20228;-80
2022/05/23 15:12:25;;;;;;;6.33;2.87;;;;;;;28.05;45.91;97386.44;6942655;28;20252;-82
2022/05/23 15:15:46;;;;;;;5.73;2.70;;;;;;;28.43;44.47;97384.78;6939137;28;20207;-82
2022/05/23 15:19:09;;;;;;;5.60;2.43;;;;;;;28.56;42.99;97389.13;6959458;28;20208;-82
2022/05/23 15:22:31;;;;;;;3.77;2.40;;;;;;;28.27;43.70;97406.13;6961343;28;20221;-82
2022/05/23 15:25:53;;;;;;;3.80;2.50;;;;;;;28.66;42.66;97416.34;6952171;28;20669;-82
2022/05/23 15:29:15;;;;;;;3.83;2.60;;;;;;;28.21;43.44;97428.88;6949899;28;20238;-81
2022/05/23 15:32:39;;;;;;;3.80;2.23;;;;;;;28.55;43.43;97439.41;6951098;28;20208;-82
2022/05/23 15:36:01;;;;;;;4.40;2.17;;;;;;;28.12;44.14;97442.88;6961201;28;20210;-80
2022/05/23 15:39:22;;;;;;;4.00;2.23;;;;;;;28.27;44.02;97444.09;6956950;28;20631;-82
2022/05/23 15:42:47;;;;;;;4.37;2.50;;;;;;;28.20;44.32;97455.00;6938482;28;20227;-79
2022/05/23 15:46:18;;;;;;;5.27;2.87;;;;;;;27.59;46.68;97451.50;6931938;28;20211;-81
2022/05/23 15:49:41;;;;;;;3.60;2.23;;;;;;;27.45;46.46;97428.06;6922234;28;20241;-76
2022/05/23 15:53:03;;;;;;;4.50;2.80;;;;;;;27.19;46.91;97413.78;6922919;28;20212;-81
2022/05/23 15:56:26;;;;;;;6.93;2.90;;;;;;;26.67;49.38;97396.97;6923265;28;20211;-80
2022/05/23 15:59:47;;;;;;;5.17;2.73;;;;;;;26.86;49.72;97426.84;6921701;28;20220;-80
2022/05/23 16:03:11;;;;;;;4.03;2.60;;;;;;;26.47;51.12;97430.97;6922846;28;20267;-81
2022/05/23 16:06:32;;;;;;;6.10;2.63;;;;;;;26.09;52.24;97430.38;6923513;28;20566;-82
2022/05/23 16:09:54;;;;;;;5.87;2.83;;;;;;;26.01;53.08;97413.88;6921455;28;20231;-82
2022/05/23 16:13:16;;;;;;;5.70;2.80;;;;;;;25.49;53.33;97382.22;6925717;28;20734;-80
2022/05/23 16:16:38;;;;;;;11.77;2.70;;;;;;;25.28;54.35;97418.06;6950098;28;20203;-81
2022/05/23 16:20:01;;;;;;;7.13;3.17;;;;;;;25.12;53.67;97392.16;6948859;28;20223;-83
2022/05/23 16:23:23;;;;;;;7.50;2.83;;;;;;;25.21;53.06;97414.19;6952545;28;20281;-81
2022/05/23 16:26:46;;;;;;;8.03;3.00;;;;;;;24.78;52.34;97325.34;6949885;28;20204;-82
2022/05/23 16:30:11;;;;;;;5.37;2.80;;;;;;;24.94;53.41;97373.25;6949864;28;20234;-83
2022/05/23 16:37:13;;;;;;;6.90;3.60;;;;;;;24.99;53.85;97382.16;6949336;28;20199;-83
2022/05/23 16:40:34;;;;;;;7.20;3.03;;;;;;;25.03;53.71;97333.47;6945212;28;20242;-80
2022/05/23 16:43:56;;;;;;;7.37;3.03;;;;;;;24.63;55.16;97408.56;6950124;28;20214;-82
2022/05/23 16:47:18;;;;;;;10.93;5.47;;;;;;;24.29;55.90;97428.72;6953446;28;20209;-82
2022/05/23 16:50:40;;;;;;;9.20;3.30;;;;;;;23.91;56.42;97425.03;6954293;28;20296;-81
2022/05/23 16:54:04;;;;;;;5.93;3.23;;;;;;;23.57;57.81;97435.97;6955583;28;20205;-81
2022/05/23 16:57:25;;;;;;;15.63;6.87;;;;;;;23.65;58.20;97407.63;6954819;28;20230;-82
2022/05/23 17:00:47;;;;;;;7.30;2.90;;;;;;;23.65;57.67;97406.84;6954929;28;20221;-81
2022/05/23 17:04:08;;;;;;;5.73;3.47;;;;;;;23.61;57.88;97390.16;6940619;28;20238;-82
2022/05/23 17:07:30;;;;;;;5.03;2.70;;;;;;;23.30;58.15;97392.22;6945539;28;20211;-81
2022/05/23 17:10:53;;;;;;;7.93;3.00;;;;;;;23.06;58.93;97394.53;6952374;28;20428;-82
2022/05/23 17:14:15;;;;;;;9.03;3.27;;;;;;;22.82;59.60;97374.91;6927748;28;20224;-81